KCRX/CRX METAR and TAF weather

Enter ICAO airport designator
Station Type Date Time Source
KCRX METAR 2018/10/16 20:35 UTC NOAA

KCRX 162035Z AUTO 36004KT 8SM -RA OVC008 11/10 A3021 RMK AO2


Station Type Date Time Source
KCRX Decoded METAR 2018/10/16 20:35 UTC NOAA

Station name not available
Oct 16, 2018 - 04:35 PM EDT / 2018.10.16 2035 UTC
Wind: from the N (360 degrees) at 5 MPH (4 KT):0
Visibility: 8 mile(s):0
Sky conditions: overcast
Weather: light rain
Temperature: 51 F (11 C)
Dew Point: 50 F (10 C)
Relative Humidity: 93%
Pressure (altimeter): 30.21 in. Hg (1023 hPa)
ob: KCRX 162035Z AUTO 36004KT 8SM -RA OVC008 11/10 A3021 RMK AO2
cycle: 20

Station Type Date Time Source
KCRX TAF UTC NOAA

Error!


Example: see airport list